createdAt,value
2023-02-28T00:05:34.703Z,-0.60
2023-02-28T00:12:16.970Z,-0.60
2023-02-28T00:18:59.251Z,-0.70
2023-02-28T00:25:41.552Z,-0.70
2023-02-28T00:32:23.936Z,-0.80
2023-02-28T00:39:06.239Z,-0.90
2023-02-28T00:45:48.621Z,-0.90
2023-02-28T00:52:31.326Z,-0.90
2023-02-28T00:59:15.043Z,-1.00
2023-02-28T01:05:57.368Z,-1.10
2023-02-28T01:12:39.774Z,-1.10
2023-02-28T01:19:22.092Z,-1.20
2023-02-28T01:26:06.944Z,-1.30
2023-02-28T01:32:49.281Z,-1.20
2023-02-28T01:39:31.639Z,-1.20
2023-02-28T01:46:14.894Z,-1.20
2023-02-28T01:53:01.655Z,-1.20
2023-02-28T01:59:47.291Z,-1.10
2023-02-28T02:06:39.637Z,-1.10
2023-02-28T02:13:56.216Z,-1.10
2023-02-28T02:21:19.241Z,-1.10
2023-02-28T02:28:40.248Z,-1.00
2023-02-28T02:35:44.247Z,-1.00
2023-02-28T02:42:35.742Z,-0.90
2023-02-28T02:49:34.768Z,-0.90
2023-02-28T02:56:24.633Z,-0.90
2023-02-28T03:03:09.120Z,-0.80
2023-02-28T03:09:56.969Z,-0.70
2023-02-28T03:17:10.041Z,-0.60
2023-02-28T03:24:13.190Z,-0.60
2023-02-28T03:31:18.923Z,-0.50
2023-02-28T03:38:08.306Z,-0.50
2023-02-28T03:45:01.516Z,-0.40
2023-02-28T03:51:46.888Z,-0.40
2023-02-28T03:58:48.056Z,-0.30
2023-02-28T04:05:31.072Z,-0.30
2023-02-28T04:12:13.558Z,-0.30
2023-02-28T04:19:02.873Z,-0.30
2023-02-28T04:25:45.161Z,-0.20
2023-02-28T04:32:27.506Z,-0.20
2023-02-28T04:39:10.691Z,-0.20
2023-02-28T04:45:53.146Z,-0.20
2023-02-28T04:52:35.461Z,-0.10
2023-02-28T04:59:18.201Z,-0.10
2023-02-28T05:06:00.502Z,0.00
2023-02-28T05:12:42.768Z,0.00
2023-02-28T05:19:25.050Z,-0.10
2023-02-28T05:26:07.355Z,-0.10
2023-02-28T05:32:52.523Z,-0.20
2023-02-28T05:39:34.830Z,-0.10
2023-02-28T05:46:17.575Z,-0.10
2023-02-28T05:52:59.847Z,0.00
2023-02-28T05:59:42.270Z,0.00
2023-02-28T06:06:24.593Z,0.00
2023-02-28T06:13:07.152Z,0.00
2023-02-28T06:19:49.529Z,0.00
2023-02-28T06:26:32.072Z,0.00
2023-02-28T06:33:14.390Z,0.00
2023-02-28T06:39:57.074Z,0.00
2023-02-28T06:46:44.485Z,0.10
2023-02-28T06:53:26.795Z,0.10
2023-02-28T07:00:10.959Z,0.10
2023-02-28T07:06:53.282Z,0.20
2023-02-28T07:13:36.069Z,0.30
2023-02-28T07:20:18.530Z,0.40
2023-02-28T07:27:01.846Z,0.30
2023-02-28T07:33:44.745Z,0.40
2023-02-28T07:40:27.854Z,0.40
2023-02-28T07:47:11.002Z,0.50
2023-02-28T07:53:53.283Z,0.50
2023-02-28T08:00:35.889Z,0.50
2023-02-28T08:07:19.382Z,0.50
2023-02-28T08:14:01.825Z,0.60
2023-02-28T08:20:44.375Z,0.70
2023-02-28T08:27:26.747Z,0.70
2023-02-28T08:34:11.753Z,1.00
2023-02-28T08:41:02.068Z,1.00
2023-02-28T08:47:44.372Z,1.20
2023-02-28T08:54:26.775Z,1.20
2023-02-28T09:01:22.413Z,1.40
2023-02-28T09:08:04.976Z,1.70
2023-02-28T09:14:47.223Z,2.00
2023-02-28T09:21:29.991Z,2.30
2023-02-28T09:28:12.560Z,2.60
2023-02-28T09:34:55.086Z,3.00
2023-02-28T09:41:49.468Z,3.20
2023-02-28T09:48:41.252Z,3.10
2023-02-28T09:55:46.262Z,3.30
2023-02-28T10:02:37.570Z,3.40
2023-02-28T10:09:31.969Z,3.40
2023-02-28T10:16:21.052Z,3.50
2023-02-28T10:23:29.011Z,3.80
2023-02-28T10:30:14.698Z,4.00
2023-02-28T10:37:08.165Z,4.00
2023-02-28T10:43:50.493Z,4.20
2023-02-28T10:50:47.852Z,4.30
2023-02-28T10:57:31.781Z,4.90
2023-02-28T11:04:30.490Z,5.50
2023-02-28T11:11:13.078Z,6.20
2023-02-28T11:17:57.021Z,6.00
2023-02-28T11:24:44.868Z,6.90
2023-02-28T11:31:30.911Z,5.90
2023-02-28T11:38:14.088Z,6.20
2023-02-28T11:45:27.361Z,6.00
2023-02-28T11:52:34.581Z,6.30
2023-02-28T11:59:34.916Z,6.40
2023-02-28T12:06:31.493Z,5.60
2023-02-28T12:13:36.927Z,5.70
2023-02-28T12:20:45.462Z,6.00
2023-02-28T12:27:32.532Z,5.80
2023-02-28T12:34:21.409Z,6.20
2023-02-28T12:41:09.873Z,6.10
2023-02-28T12:47:59.101Z,5.90
2023-02-28T12:55:04.860Z,5.80
2023-02-28T13:02:19.710Z,7.20
2023-02-28T13:09:05.925Z,6.10
2023-02-28T13:16:08.787Z,6.20
2023-02-28T13:22:54.404Z,6.10
2023-02-28T13:29:39.674Z,6.30
2023-02-28T13:36:23.697Z,6.40
2023-02-28T13:43:09.962Z,6.70
2023-02-28T13:49:52.886Z,6.70
2023-02-28T13:56:50.501Z,6.50
2023-02-28T14:03:44.739Z,6.80
2023-02-28T14:10:33.323Z,6.80
2023-02-28T14:17:17.597Z,6.80
2023-02-28T14:24:30.006Z,7.00
2023-02-28T14:31:24.436Z,6.80
2023-02-28T14:38:14.458Z,6.50
2023-02-28T14:44:57.502Z,6.50
2023-02-28T14:51:39.920Z,6.60
2023-02-28T14:58:28.338Z,6.70
2023-02-28T15:05:10.597Z,6.70
2023-02-28T15:11:52.979Z,6.80
2023-02-28T15:18:56.643Z,6.70
2023-02-28T15:25:40.820Z,6.60
2023-02-28T15:32:27.885Z,6.60
2023-02-28T15:39:30.834Z,6.50
2023-02-28T15:46:15.164Z,6.40
2023-02-28T15:52:58.877Z,6.60
2023-02-28T15:59:51.877Z,6.40
2023-02-28T16:06:39.232Z,6.30
2023-02-28T16:13:21.537Z,6.20
2023-02-28T16:20:27.252Z,5.90
2023-02-28T16:27:33.878Z,5.90
2023-02-28T16:34:16.212Z,5.70
2023-02-28T16:41:01.471Z,5.60
2023-02-28T16:47:43.785Z,5.40
2023-02-28T16:54:26.260Z,5.30
2023-02-28T17:01:08.940Z,5.10
2023-02-28T17:07:51.698Z,5.00
2023-02-28T17:14:34.343Z,4.70
2023-02-28T17:21:17.586Z,4.60
2023-02-28T17:27:59.926Z,4.40
2023-02-28T17:34:42.270Z,4.20
2023-02-28T17:41:25.198Z,4.10
2023-02-28T17:48:09.922Z,3.90
2023-02-28T17:54:52.246Z,3.80
2023-02-28T18:01:34.606Z,3.70
2023-02-28T18:08:17.272Z,3.50
2023-02-28T18:21:46.516Z,3.50
2023-02-28T18:28:28.957Z,3.10
2023-02-28T18:35:11.305Z,2.90
2023-02-28T18:41:53.614Z,2.80
2023-02-28T18:48:36.661Z,2.60
2023-02-28T18:55:19.085Z,2.50
2023-02-28T19:02:01.476Z,2.30
2023-02-28T19:08:44.074Z,2.10
2023-02-28T19:49:01.223Z,1.90
2023-02-28T19:55:46.220Z,1.40
2023-02-28T20:02:28.541Z,1.20
2023-02-28T20:09:10.867Z,1.20
2023-02-28T20:15:53.150Z,1.10
2023-02-28T20:22:38.244Z,1.20
2023-02-28T20:29:20.864Z,1.30
2023-02-28T20:36:05.490Z,1.30
2023-02-28T20:42:47.798Z,1.30
2023-02-28T20:49:30.145Z,1.20
2023-02-28T20:56:18.303Z,1.10
2023-02-28T21:03:00.698Z,1.10
2023-02-28T21:09:43.121Z,1.10
2023-02-28T21:16:27.171Z,1.20
2023-02-28T21:23:09.560Z,1.10
2023-02-28T21:29:51.885Z,1.10
2023-02-28T21:36:40.432Z,0.70
2023-02-28T21:43:22.841Z,0.90
2023-02-28T21:50:05.536Z,0.80
2023-02-28T21:56:50.439Z,0.80
2023-02-28T22:03:32.956Z,0.80
2023-02-28T22:16:58.277Z,0.80
2023-02-28T22:23:42.208Z,0.30
2023-02-28T22:30:24.726Z,0.20
2023-02-28T22:37:07.065Z,0.20
2023-02-28T22:43:54.624Z,0.10
2023-02-28T22:50:37.150Z,0.00
2023-02-28T22:57:19.597Z,0.00
2023-02-28T23:04:02.675Z,0.10
2023-02-28T23:10:45.060Z,0.10
2023-02-28T23:17:28.021Z,0.10
2023-02-28T23:24:13.681Z,0.20
2023-02-28T23:30:56.021Z,0.30
2023-02-28T23:37:39.667Z,0.30
2023-02-28T23:44:22.045Z,0.30
2023-02-28T23:51:14.665Z,0.30
2023-02-28T23:57:57.231Z,0.20
